sensor_id;sensor_type;location;lat;lon;timestamp;P1;durP1;ratioP1;P2;durP2;ratioP2
71878;SDS011;59755;43.834;4.364;2022-08-03T00:01:41;6.30;;;3.15;;
71878;SDS011;59755;43.834;4.364;2022-08-03T00:04:07;7.68;;;3.67;;
71878;SDS011;59755;43.834;4.364;2022-08-03T00:06:34;6.03;;;2.97;;
71878;SDS011;59755;43.834;4.364;2022-08-03T00:09:00;7.03;;;3.25;;
71878;SDS011;59755;43.834;4.364;2022-08-03T00:11:26;6.25;;;3.08;;
71878;SDS011;59755;43.834;4.364;2022-08-03T00:13:52;7.05;;;3.10;;
71878;SDS011;59755;43.834;4.364;2022-08-03T00:16:18;6.75;;;3.08;;
71878;SDS011;59755;43.834;4.364;2022-08-03T00:18:44;5.80;;;3.15;;
71878;SDS011;59755;43.834;4.364;2022-08-03T00:21:10;5.95;;;2.95;;
71878;SDS011;59755;43.834;4.364;2022-08-03T00:23:36;6.15;;;3.17;;
71878;SDS011;59755;43.834;4.364;2022-08-03T00:26:02;5.82;;;3.20;;
71878;SDS011;59755;43.834;4.364;2022-08-03T00:28:28;5.97;;;2.90;;
71878;SDS011;59755;43.834;4.364;2022-08-03T00:30:53;7.03;;;2.90;;
71878;SDS011;59755;43.834;4.364;2022-08-03T00:33:22;6.05;;;2.88;;
71878;SDS011;59755;43.834;4.364;2022-08-03T00:35:48;7.50;;;2.80;;
71878;SDS011;59755;43.834;4.364;2022-08-03T00:38:14;5.97;;;3.08;;
71878;SDS011;59755;43.834;4.364;2022-08-03T00:40:39;5.68;;;3.15;;
71878;SDS011;59755;43.834;4.364;2022-08-03T00:43:06;6.43;;;3.05;;
71878;SDS011;59755;43.834;4.364;2022-08-03T00:45:36;6.43;;;3.25;;
71878;SDS011;59755;43.834;4.364;2022-08-03T00:48:06;6.55;;;3.00;;
71878;SDS011;59755;43.834;4.364;2022-08-03T00:50:34;5.10;;;2.88;;
71878;SDS011;59755;43.834;4.364;2022-08-03T00:53:04;6.77;;;3.20;;
71878;SDS011;59755;43.834;4.364;2022-08-03T00:55:31;5.93;;;3.28;;
71878;SDS011;59755;43.834;4.364;2022-08-03T00:57:58;5.45;;;2.70;;
71878;SDS011;59755;43.834;4.364;2022-08-03T01:00:26;6.65;;;3.20;;
71878;SDS011;59755;43.834;4.364;2022-08-03T01:02:52;6.45;;;3.05;;
71878;SDS011;59755;43.834;4.364;2022-08-03T01:05:19;6.85;;;3.17;;
71878;SDS011;59755;43.834;4.364;2022-08-03T01:13:20;6.75;;;3.13;;
71878;SDS011;59755;43.834;4.364;2022-08-03T01:16:07;7.45;;;3.25;;
71878;SDS011;59755;43.834;4.364;2022-08-03T01:21:19;5.72;;;3.22;;
71878;SDS011;59755;43.834;4.364;2022-08-03T01:32:20;6.82;;;3.30;;
71878;SDS011;59755;43.834;4.364;2022-08-03T01:34:53;5.93;;;3.30;;
71878;SDS011;59755;43.834;4.364;2022-08-03T01:37:27;6.35;;;3.42;;
71878;SDS011;59755;43.834;4.364;2022-08-03T01:40:00;8.25;;;3.70;;
71878;SDS011;59755;43.834;4.364;2022-08-03T01:42:29;9.63;;;3.92;;
71878;SDS011;59755;43.834;4.364;2022-08-03T01:44:56;6.57;;;3.33;;
71878;SDS011;59755;43.834;4.364;2022-08-03T01:47:24;6.53;;;3.47;;
71878;SDS011;59755;43.834;4.364;2022-08-03T01:49:51;7.38;;;4.18;;
71878;SDS011;59755;43.834;4.364;2022-08-03T01:52:19;7.18;;;4.03;;
71878;SDS011;59755;43.834;4.364;2022-08-03T01:54:47;6.50;;;3.70;;
71878;SDS011;59755;43.834;4.364;2022-08-03T01:57:14;8.18;;;3.95;;
71878;SDS011;59755;43.834;4.364;2022-08-03T01:59:41;6.85;;;3.60;;
71878;SDS011;59755;43.834;4.364;2022-08-03T02:02:12;7.47;;;3.92;;
71878;SDS011;59755;43.834;4.364;2022-08-03T02:04:40;7.55;;;3.60;;
71878;SDS011;59755;43.834;4.364;2022-08-03T02:07:08;7.25;;;3.85;;
71878;SDS011;59755;43.834;4.364;2022-08-03T02:09:36;7.15;;;3.58;;
71878;SDS011;59755;43.834;4.364;2022-08-03T02:12:07;8.35;;;3.85;;
71878;SDS011;59755;43.834;4.364;2022-08-03T02:14:34;6.60;;;3.50;;
71878;SDS011;59755;43.834;4.364;2022-08-03T02:17:01;8.00;;;3.83;;
71878;SDS011;59755;43.834;4.364;2022-08-03T02:19:28;6.60;;;3.35;;
71878;SDS011;59755;43.834;4.364;2022-08-03T02:21:56;6.30;;;3.47;;
71878;SDS011;59755;43.834;4.364;2022-08-03T02:24:22;7.15;;;3.30;;
71878;SDS011;59755;43.834;4.364;2022-08-03T02:26:48;7.75;;;3.42;;
71878;SDS011;59755;43.834;4.364;2022-08-03T02:29:19;5.93;;;3.35;;
71878;SDS011;59755;43.834;4.364;2022-08-03T02:31:46;7.45;;;3.55;;
71878;SDS011;59755;43.834;4.364;2022-08-03T02:34:14;6.53;;;3.30;;
71878;SDS011;59755;43.834;4.364;2022-08-03T02:36:46;7.05;;;3.53;;
71878;SDS011;59755;43.834;4.364;2022-08-03T02:39:16;7.05;;;3.45;;
71878;SDS011;59755;43.834;4.364;2022-08-03T02:41:49;6.97;;;3.40;;
71878;SDS011;59755;43.834;4.364;2022-08-03T02:44:25;6.40;;;3.50;;
71878;SDS011;59755;43.834;4.364;2022-08-03T02:46:57;6.78;;;3.30;;
71878;SDS011;59755;43.834;4.364;2022-08-03T02:49:26;6.97;;;3.15;;
71878;SDS011;59755;43.834;4.364;2022-08-03T02:51:53;6.55;;;3.10;;
71878;SDS011;59755;43.834;4.364;2022-08-03T02:54:20;6.88;;;3.22;;
71878;SDS011;59755;43.834;4.364;2022-08-03T02:56:49;6.35;;;3.47;;
71878;SDS011;59755;43.834;4.364;2022-08-03T02:59:18;6.78;;;3.10;;
71878;SDS011;59755;43.834;4.364;2022-08-03T03:01:45;6.45;;;3.17;;
71878;SDS011;59755;43.834;4.364;2022-08-03T03:04:11;6.50;;;3.30;;
71878;SDS011;59755;43.834;4.364;2022-08-03T03:06:38;6.70;;;3.30;;
71878;SDS011;59755;43.834;4.364;2022-08-03T03:09:05;6.07;;;3.10;;
71878;SDS011;59755;43.834;4.364;2022-08-03T03:11:31;6.28;;;3.15;;
71878;SDS011;59755;43.834;4.364;2022-08-03T03:14:00;6.10;;;3.20;;
71878;SDS011;59755;43.834;4.364;2022-08-03T03:16:26;6.68;;;3.00;;
71878;SDS011;59755;43.834;4.364;2022-08-03T03:18:53;7.28;;;3.45;;
71878;SDS011;59755;43.834;4.364;2022-08-03T03:21:19;6.78;;;3.13;;
71878;SDS011;59755;43.834;4.364;2022-08-03T03:23:47;7.93;;;3.05;;
71878;SDS011;59755;43.834;4.364;2022-08-03T03:26:13;6.32;;;2.88;;
71878;SDS011;59755;43.834;4.364;2022-08-03T03:28:40;7.07;;;2.92;;
71878;SDS011;59755;43.834;4.364;2022-08-03T03:31:06;8.35;;;3.00;;
71878;SDS011;59755;43.834;4.364;2022-08-03T03:33:33;5.78;;;2.70;;
71878;SDS011;59755;43.834;4.364;2022-08-03T03:36:00;5.90;;;2.88;;
71878;SDS011;59755;43.834;4.364;2022-08-03T03:38:27;7.22;;;2.85;;
71878;SDS011;59755;43.834;4.364;2022-08-03T03:40:53;6.07;;;2.90;;
71878;SDS011;59755;43.834;4.364;2022-08-03T03:43:19;6.88;;;2.88;;
71878;SDS011;59755;43.834;4.364;2022-08-03T03:45:47;5.90;;;2.97;;
71878;SDS011;59755;43.834;4.364;2022-08-03T03:48:13;5.78;;;2.80;;
71878;SDS011;59755;43.834;4.364;2022-08-03T03:50:40;7.32;;;2.75;;
71878;SDS011;59755;43.834;4.364;2022-08-03T03:53:08;6.72;;;2.90;;
71878;SDS011;59755;43.834;4.364;2022-08-03T03:55:37;5.68;;;3.00;;
71878;SDS011;59755;43.834;4.364;2022-08-03T03:58:04;6.55;;;3.03;;
71878;SDS011;59755;43.834;4.364;2022-08-03T04:00:31;5.50;;;2.97;;
71878;SDS011;59755;43.834;4.364;2022-08-03T04:02:56;5.50;;;2.80;;
71878;SDS011;59755;43.834;4.364;2022-08-03T04:05:22;5.38;;;2.45;;
71878;SDS011;59755;43.834;4.364;2022-08-03T04:08:14;7.38;;;2.75;;
71878;SDS011;59755;43.834;4.364;2022-08-03T04:11:02;5.38;;;2.70;;
71878;SDS011;59755;43.834;4.364;2022-08-03T04:13:38;7.35;;;3.03;;
71878;SDS011;59755;43.834;4.364;2022-08-03T04:16:24;5.63;;;2.80;;
71878;SDS011;59755;43.834;4.364;2022-08-03T04:18:54;5.63;;;2.67;;
71878;SDS011;59755;43.834;4.364;2022-08-03T04:21:25;5.22;;;2.70;;
71878;SDS011;59755;43.834;4.364;2022-08-03T04:23:54;6.63;;;2.90;;
71878;SDS011;59755;43.834;4.364;2022-08-03T04:26:22;5.40;;;2.50;;
71878;SDS011;59755;43.834;4.364;2022-08-03T04:28:52;7.45;;;2.70;;
71878;SDS011;59755;43.834;4.364;2022-08-03T04:31:21;7.00;;;2.80;;
71878;SDS011;59755;43.834;4.364;2022-08-03T04:33:49;5.80;;;2.70;;
71878;SDS011;59755;43.834;4.364;2022-08-03T04:36:18;5.80;;;2.60;;
71878;SDS011;59755;43.834;4.364;2022-08-03T04:39:09;5.45;;;2.60;;
71878;SDS011;59755;43.834;4.364;2022-08-03T04:41:34;6.25;;;2.80;;
71878;SDS011;59755;43.834;4.364;2022-08-03T04:44:02;7.65;;;2.80;;
71878;SDS011;59755;43.834;4.364;2022-08-03T04:46:36;5.15;;;2.65;;
71878;SDS011;59755;43.834;4.364;2022-08-03T04:49:04;6.28;;;2.75;;
71878;SDS011;59755;43.834;4.364;2022-08-03T04:51:31;4.95;;;2.40;;
71878;SDS011;59755;43.834;4.364;2022-08-03T04:53:59;7.22;;;2.58;;
71878;SDS011;59755;43.834;4.364;2022-08-03T04:56:25;5.45;;;2.78;;
71878;SDS011;59755;43.834;4.364;2022-08-03T04:58:51;8.10;;;2.75;;
71878;SDS011;59755;43.834;4.364;2022-08-03T05:01:17;6.82;;;2.60;;
71878;SDS011;59755;43.834;4.364;2022-08-03T05:03:45;7.05;;;2.85;;
71878;SDS011;59755;43.834;4.364;2022-08-03T05:06:11;6.82;;;2.60;;
71878;SDS011;59755;43.834;4.364;2022-08-03T05:08:37;7.32;;;2.80;;
71878;SDS011;59755;43.834;4.364;2022-08-03T05:11:03;5.75;;;2.70;;
71878;SDS011;59755;43.834;4.364;2022-08-03T05:13:29;6.22;;;3.00;;
71878;SDS011;59755;43.834;4.364;2022-08-03T05:15:55;5.57;;;2.53;;
71878;SDS011;59755;43.834;4.364;2022-08-03T05:18:20;6.15;;;2.60;;
71878;SDS011;59755;43.834;4.364;2022-08-03T05:20:46;8.38;;;2.60;;
71878;SDS011;59755;43.834;4.364;2022-08-03T05:23:12;6.03;;;2.63;;
71878;SDS011;59755;43.834;4.364;2022-08-03T05:25:38;6.97;;;2.65;;
71878;SDS011;59755;43.834;4.364;2022-08-03T05:28:04;7.88;;;2.90;;
71878;SDS011;59755;43.834;4.364;2022-08-03T05:30:29;8.10;;;3.00;;
71878;SDS011;59755;43.834;4.364;2022-08-03T05:32:55;5.68;;;2.95;;
71878;SDS011;59755;43.834;4.364;2022-08-03T05:35:21;6.63;;;2.60;;
71878;SDS011;59755;43.834;4.364;2022-08-03T05:37:49;6.40;;;2.95;;
71878;SDS011;59755;43.834;4.364;2022-08-03T05:40:15;5.18;;;2.90;;
71878;SDS011;59755;43.834;4.364;2022-08-03T05:42:41;6.60;;;2.78;;
71878;SDS011;59755;43.834;4.364;2022-08-03T05:45:06;6.47;;;2.85;;
71878;SDS011;59755;43.834;4.364;2022-08-03T05:47:39;7.28;;;3.20;;
71878;SDS011;59755;43.834;4.364;2022-08-03T05:50:05;7.03;;;2.90;;
71878;SDS011;59755;43.834;4.364;2022-08-03T05:52:32;6.35;;;2.80;;
71878;SDS011;59755;43.834;4.364;2022-08-03T05:54:57;6.95;;;2.72;;
71878;SDS011;59755;43.834;4.364;2022-08-03T05:57:23;8.68;;;3.08;;
71878;SDS011;59755;43.834;4.364;2022-08-03T05:59:50;8.35;;;2.95;;
71878;SDS011;59755;43.834;4.364;2022-08-03T06:02:15;9.63;;;2.95;;
71878;SDS011;59755;43.834;4.364;2022-08-03T06:04:41;7.47;;;3.13;;
71878;SDS011;59755;43.834;4.364;2022-08-03T06:07:07;7.45;;;2.95;;
71878;SDS011;59755;43.834;4.364;2022-08-03T06:09:32;6.97;;;3.10;;
71878;SDS011;59755;43.834;4.364;2022-08-03T06:11:58;6.47;;;3.05;;
71878;SDS011;59755;43.834;4.364;2022-08-03T06:14:24;9.27;;;3.42;;
71878;SDS011;59755;43.834;4.364;2022-08-03T06:16:49;7.88;;;3.30;;
71878;SDS011;59755;43.834;4.364;2022-08-03T06:19:15;7.75;;;2.92;;
71878;SDS011;59755;43.834;4.364;2022-08-03T06:21:41;8.68;;;3.28;;
71878;SDS011;59755;43.834;4.364;2022-08-03T06:24:07;7.05;;;3.10;;
71878;SDS011;59755;43.834;4.364;2022-08-03T06:26:32;8.23;;;3.50;;
71878;SDS011;59755;43.834;4.364;2022-08-03T06:28:59;6.55;;;3.00;;
71878;SDS011;59755;43.834;4.364;2022-08-03T06:31:25;9.10;;;3.33;;
71878;SDS011;59755;43.834;4.364;2022-08-03T06:33:53;7.25;;;3.20;;
71878;SDS011;59755;43.834;4.364;2022-08-03T06:36:19;7.10;;;3.40;;
71878;SDS011;59755;43.834;4.364;2022-08-03T06:38:45;9.68;;;3.60;;
71878;SDS011;59755;43.834;4.364;2022-08-03T06:41:11;7.75;;;3.28;;
71878;SDS011;59755;43.834;4.364;2022-08-03T06:43:36;8.00;;;3.42;;
71878;SDS011;59755;43.834;4.364;2022-08-03T06:46:02;10.23;;;3.67;;
71878;SDS011;59755;43.834;4.364;2022-08-03T06:48:32;8.55;;;3.40;;
71878;SDS011;59755;43.834;4.364;2022-08-03T06:50:57;9.48;;;3.65;;
71878;SDS011;59755;43.834;4.364;2022-08-03T06:53:23;10.65;;;3.40;;
71878;SDS011;59755;43.834;4.364;2022-08-03T06:55:49;10.50;;;4.00;;
71878;SDS011;59755;43.834;4.364;2022-08-03T06:58:15;8.85;;;3.80;;
71878;SDS011;59755;43.834;4.364;2022-08-03T07:00:41;12.27;;;3.72;;
71878;SDS011;59755;43.834;4.364;2022-08-03T07:03:06;14.32;;;3.90;;
71878;SDS011;59755;43.834;4.364;2022-08-03T07:05:32;13.40;;;4.18;;
71878;SDS011;59755;43.834;4.364;2022-08-03T07:07:59;13.25;;;4.07;;
71878;SDS011;59755;43.834;4.364;2022-08-03T07:10:26;11.55;;;3.95;;
71878;SDS011;59755;43.834;4.364;2022-08-03T07:12:52;11.02;;;3.63;;
71878;SDS011;59755;43.834;4.364;2022-08-03T07:15:18;9.10;;;3.63;;
71878;SDS011;59755;43.834;4.364;2022-08-03T07:17:44;10.32;;;3.75;;
71878;SDS011;59755;43.834;4.364;2022-08-03T07:20:10;8.20;;;3.60;;
71878;SDS011;59755;43.834;4.364;2022-08-03T07:22:37;8.98;;;3.90;;
71878;SDS011;59755;43.834;4.364;2022-08-03T07:25:03;8.10;;;3.88;;
71878;SDS011;59755;43.834;4.364;2022-08-03T07:27:29;10.63;;;3.88;;
71878;SDS011;59755;43.834;4.364;2022-08-03T07:29:55;10.82;;;3.80;;
71878;SDS011;59755;43.834;4.364;2022-08-03T07:32:22;11.15;;;3.75;;
71878;SDS011;59755;43.834;4.364;2022-08-03T07:34:48;9.65;;;3.72;;
71878;SDS011;59755;43.834;4.364;2022-08-03T07:37:14;9.18;;;3.60;;
71878;SDS011;59755;43.834;4.364;2022-08-03T07:39:40;6.97;;;3.83;;
71878;SDS011;59755;43.834;4.364;2022-08-03T07:42:06;7.53;;;3.70;;
71878;SDS011;59755;43.834;4.364;2022-08-03T07:44:32;9.32;;;4.00;;
71878;SDS011;59755;43.834;4.364;2022-08-03T07:46:57;7.10;;;3.90;;
71878;SDS011;59755;43.834;4.364;2022-08-03T07:49:24;7.65;;;4.00;;
71878;SDS011;59755;43.834;4.364;2022-08-03T07:51:49;7.13;;;3.70;;
71878;SDS011;59755;43.834;4.364;2022-08-03T07:54:35;6.03;;;3.58;;
71878;SDS011;59755;43.834;4.364;2022-08-03T07:57:01;7.05;;;3.63;;
71878;SDS011;59755;43.834;4.364;2022-08-03T07:59:26;7.57;;;3.72;;
71878;SDS011;59755;43.834;4.364;2022-08-03T08:01:52;9.73;;;4.00;;
71878;SDS011;59755;43.834;4.364;2022-08-03T08:04:18;7.07;;;3.75;;
71878;SDS011;59755;43.834;4.364;2022-08-03T08:06:43;5.50;;;3.50;;
71878;SDS011;59755;43.834;4.364;2022-08-03T08:09:09;7.97;;;3.55;;
71878;SDS011;59755;43.834;4.364;2022-08-03T08:11:35;7.43;;;3.55;;
71878;SDS011;59755;43.834;4.364;2022-08-03T08:14:02;9.48;;;3.60;;
71878;SDS011;59755;43.834;4.364;2022-08-03T08:16:28;7.93;;;3.63;;
71878;SDS011;59755;43.834;4.364;2022-08-03T08:18:54;8.52;;;3.83;;
71878;SDS011;59755;43.834;4.364;2022-08-03T08:21:20;8.38;;;3.88;;
71878;SDS011;59755;43.834;4.364;2022-08-03T08:23:46;9.25;;;4.07;;
71878;SDS011;59755;43.834;4.364;2022-08-03T08:26:12;7.70;;;3.65;;
71878;SDS011;59755;43.834;4.364;2022-08-03T08:28:38;7.13;;;3.50;;
71878;SDS011;59755;43.834;4.364;2022-08-03T08:31:04;6.55;;;3.80;;
71878;SDS011;59755;43.834;4.364;2022-08-03T08:33:30;6.85;;;3.85;;
71878;SDS011;59755;43.834;4.364;2022-08-03T08:35:56;7.55;;;4.35;;
71878;SDS011;59755;43.834;4.364;2022-08-03T08:38:22;7.43;;;3.85;;
71878;SDS011;59755;43.834;4.364;2022-08-03T08:40:48;7.20;;;3.67;;
71878;SDS011;59755;43.834;4.364;2022-08-03T08:43:14;8.63;;;4.13;;
71878;SDS011;59755;43.834;4.364;2022-08-03T08:45:40;6.82;;;3.78;;
71878;SDS011;59755;43.834;4.364;2022-08-03T08:48:06;8.38;;;4.15;;
71878;SDS011;59755;43.834;4.364;2022-08-03T08:50:33;7.18;;;4.13;;
71878;SDS011;59755;43.834;4.364;2022-08-03T08:53:01;6.13;;;3.80;;
71878;SDS011;59755;43.834;4.364;2022-08-03T08:55:27;6.40;;;3.80;;
71878;SDS011;59755;43.834;4.364;2022-08-03T08:57:58;6.80;;;4.35;;
71878;SDS011;59755;43.834;4.364;2022-08-03T09:00:29;6.70;;;4.20;;
71878;SDS011;59755;43.834;4.364;2022-08-03T09:02:55;5.60;;;3.80;;
71878;SDS011;59755;43.834;4.364;2022-08-03T09:05:21;9.15;;;3.92;;
71878;SDS011;59755;43.834;4.364;2022-08-03T09:07:47;6.85;;;3.92;;
71878;SDS011;59755;43.834;4.364;2022-08-03T09:10:14;6.55;;;3.67;;
71878;SDS011;59755;43.834;4.364;2022-08-03T09:12:46;7.70;;;3.78;;
71878;SDS011;59755;43.834;4.364;2022-08-03T09:15:24;7.00;;;3.60;;
71878;SDS011;59755;43.834;4.364;2022-08-03T09:17:59;6.38;;;4.00;;
71878;SDS011;59755;43.834;4.364;2022-08-03T09:20:27;8.38;;;4.00;;
71878;SDS011;59755;43.834;4.364;2022-08-03T09:23:04;7.45;;;3.88;;
71878;SDS011;59755;43.834;4.364;2022-08-03T09:25:35;6.07;;;4.25;;
71878;SDS011;59755;43.834;4.364;2022-08-03T09:28:09;8.15;;;4.05;;
71878;SDS011;59755;43.834;4.364;2022-08-03T09:30:38;9.40;;;4.13;;
71878;SDS011;59755;43.834;4.364;2022-08-03T09:33:05;7.40;;;3.78;;
71878;SDS011;59755;43.834;4.364;2022-08-03T09:35:40;8.27;;;3.90;;
71878;SDS011;59755;43.834;4.364;2022-08-03T09:38:17;8.52;;;3.78;;
71878;SDS011;59755;43.834;4.364;2022-08-03T09:40:51;6.50;;;4.10;;
71878;SDS011;59755;43.834;4.364;2022-08-03T09:43:18;6.80;;;3.58;;
71878;SDS011;59755;43.834;4.364;2022-08-03T09:45:44;6.55;;;3.58;;
71878;SDS011;59755;43.834;4.364;2022-08-03T09:50:58;6.90;;;3.78;;
71878;SDS011;59755;43.834;4.364;2022-08-03T09:53:25;5.45;;;3.53;;
71878;SDS011;59755;43.834;4.364;2022-08-03T09:58:21;8.98;;;4.10;;
71878;SDS011;59755;43.834;4.364;2022-08-03T10:01:03;6.65;;;3.70;;
71878;SDS011;59755;43.834;4.364;2022-08-03T10:03:30;7.57;;;4.10;;
71878;SDS011;59755;43.834;4.364;2022-08-03T10:05:57;8.02;;;4.00;;
71878;SDS011;59755;43.834;4.364;2022-08-03T10:08:37;7.25;;;3.90;;
71878;SDS011;59755;43.834;4.364;2022-08-03T10:11:03;6.57;;;3.75;;
71878;SDS011;59755;43.834;4.364;2022-08-03T10:13:29;6.97;;;3.55;;
71878;SDS011;59755;43.834;4.364;2022-08-03T10:15:55;6.97;;;3.58;;
71878;SDS011;59755;43.834;4.364;2022-08-03T10:18:21;7.57;;;3.60;;
71878;SDS011;59755;43.834;4.364;2022-08-03T10:21:09;8.20;;;3.60;;
71878;SDS011;59755;43.834;4.364;2022-08-03T10:23:34;5.63;;;3.63;;
71878;SDS011;59755;43.834;4.364;2022-08-03T10:26:02;6.13;;;3.50;;
71878;SDS011;59755;43.834;4.364;2022-08-03T10:28:33;6.97;;;3.42;;
71878;SDS011;59755;43.834;4.364;2022-08-03T10:31:00;7.22;;;3.47;;
71878;SDS011;59755;43.834;4.364;2022-08-03T10:33:30;6.32;;;3.70;;
71878;SDS011;59755;43.834;4.364;2022-08-03T10:35:58;6.60;;;3.90;;
71878;SDS011;59755;43.834;4.364;2022-08-03T10:38:36;7.57;;;3.95;;
71878;SDS011;59755;43.834;4.364;2022-08-03T10:41:05;7.85;;;4.20;;
71878;SDS011;59755;43.834;4.364;2022-08-03T10:43:35;7.55;;;3.63;;
71878;SDS011;59755;43.834;4.364;2022-08-03T10:46:06;7.88;;;3.65;;
71878;SDS011;59755;43.834;4.364;2022-08-03T10:48:32;6.88;;;3.70;;
71878;SDS011;59755;43.834;4.364;2022-08-03T10:51:00;5.90;;;3.70;;
71878;SDS011;59755;43.834;4.364;2022-08-03T10:53:36;8.73;;;3.90;;
71878;SDS011;59755;43.834;4.364;2022-08-03T10:56:03;8.48;;;4.15;;
71878;SDS011;59755;43.834;4.364;2022-08-03T10:58:52;7.65;;;3.67;;
71878;SDS011;59755;43.834;4.364;2022-08-03T11:01:18;6.78;;;3.72;;
71878;SDS011;59755;43.834;4.364;2022-08-03T11:06:30;6.28;;;3.95;;
71878;SDS011;59755;43.834;4.364;2022-08-03T11:11:33;6.18;;;3.63;;
71878;SDS011;59755;43.834;4.364;2022-08-03T11:14:01;6.78;;;3.90;;
71878;SDS011;59755;43.834;4.364;2022-08-03T11:16:32;8.73;;;3.92;;
71878;SDS011;59755;43.834;4.364;2022-08-03T11:19:00;8.93;;;3.95;;
71878;SDS011;59755;43.834;4.364;2022-08-03T11:25:15;6.20;;;3.65;;
71878;SDS011;59755;43.834;4.364;2022-08-03T11:35:12;6.93;;;3.97;;
71878;SDS011;59755;43.834;4.364;2022-08-03T11:40:35;6.80;;;3.65;;
71878;SDS011;59755;43.834;4.364;2022-08-03T11:43:03;5.32;;;2.90;;
71878;SDS011;59755;43.834;4.364;2022-08-03T11:45:29;7.43;;;3.30;;
71878;SDS011;59755;43.834;4.364;2022-08-03T11:47:56;8.45;;;3.20;;
71878;SDS011;59755;43.834;4.364;2022-08-03T11:50:23;6.00;;;3.05;;
71878;SDS011;59755;43.834;4.364;2022-08-03T11:52:49;5.57;;;2.95;;
71878;SDS011;59755;43.834;4.364;2022-08-03T11:55:16;5.10;;;2.88;;
71878;SDS011;59755;43.834;4.364;2022-08-03T11:57:44;6.70;;;3.20;;
71878;SDS011;59755;43.834;4.364;2022-08-03T12:02:53;5.07;;;2.90;;
71878;SDS011;59755;43.834;4.364;2022-08-03T12:05:19;6.15;;;2.97;;
71878;SDS011;59755;43.834;4.364;2022-08-03T12:07:45;5.47;;;2.88;;
71878;SDS011;59755;43.834;4.364;2022-08-03T12:10:12;5.82;;;2.80;;
71878;SDS011;59755;43.834;4.364;2022-08-03T12:12:39;6.60;;;2.90;;
71878;SDS011;59755;43.834;4.364;2022-08-03T12:15:06;6.30;;;2.55;;
71878;SDS011;59755;43.834;4.364;2022-08-03T12:17:33;6.32;;;3.10;;
71878;SDS011;59755;43.834;4.364;2022-08-03T12:19:59;5.63;;;2.90;;
71878;SDS011;59755;43.834;4.364;2022-08-03T12:22:38;6.25;;;2.70;;
71878;SDS011;59755;43.834;4.364;2022-08-03T12:25:04;5.93;;;2.78;;
71878;SDS011;59755;43.834;4.364;2022-08-03T12:27:31;5.60;;;2.90;;
71878;SDS011;59755;43.834;4.364;2022-08-03T12:29:58;6.80;;;2.65;;
71878;SDS011;59755;43.834;4.364;2022-08-03T12:32:26;7.00;;;2.80;;
71878;SDS011;59755;43.834;4.364;2022-08-03T12:34:52;6.15;;;2.40;;
71878;SDS011;59755;43.834;4.364;2022-08-03T12:37:20;5.82;;;2.67;;
71878;SDS011;59755;43.834;4.364;2022-08-03T12:39:54;5.93;;;2.50;;
71878;SDS011;59755;43.834;4.364;2022-08-03T12:42:20;5.00;;;2.50;;
71878;SDS011;59755;43.834;4.364;2022-08-03T12:44:46;5.63;;;2.60;;
71878;SDS011;59755;43.834;4.364;2022-08-03T12:47:15;6.22;;;2.58;;
71878;SDS011;59755;43.834;4.364;2022-08-03T12:49:44;5.95;;;2.53;;
71878;SDS011;59755;43.834;4.364;2022-08-03T12:54:37;5.75;;;2.40;;
71878;SDS011;59755;43.834;4.364;2022-08-03T12:57:03;6.78;;;2.90;;
71878;SDS011;59755;43.834;4.364;2022-08-03T12:59:31;6.30;;;2.42;;
71878;SDS011;59755;43.834;4.364;2022-08-03T13:01:57;5.45;;;2.60;;
71878;SDS011;59755;43.834;4.364;2022-08-03T13:04:27;6.95;;;2.60;;
71878;SDS011;59755;43.834;4.364;2022-08-03T13:07:01;4.47;;;2.30;;
71878;SDS011;59755;43.834;4.364;2022-08-03T13:09:28;4.60;;;2.58;;
71878;SDS011;59755;43.834;4.364;2022-08-03T13:12:09;4.80;;;2.60;;
71878;SDS011;59755;43.834;4.364;2022-08-03T13:14:35;5.95;;;2.70;;
71878;SDS011;59755;43.834;4.364;2022-08-03T13:17:02;6.93;;;2.80;;
71878;SDS011;59755;43.834;4.364;2022-08-03T13:19:28;4.93;;;2.42;;
71878;SDS011;59755;43.834;4.364;2022-08-03T13:21:54;6.80;;;2.45;;
71878;SDS011;59755;43.834;4.364;2022-08-03T13:24:20;5.90;;;2.90;;
71878;SDS011;59755;43.834;4.364;2022-08-03T13:26:46;5.22;;;2.72;;
71878;SDS011;59755;43.834;4.364;2022-08-03T13:29:12;6.13;;;2.78;;
71878;SDS011;59755;43.834;4.364;2022-08-03T13:31:38;9.48;;;2.90;;
71878;SDS011;59755;43.834;4.364;2022-08-03T13:34:04;6.15;;;2.97;;
71878;SDS011;59755;43.834;4.364;2022-08-03T13:36:30;5.28;;;2.80;;
71878;SDS011;59755;43.834;4.364;2022-08-03T13:38:56;6.25;;;2.50;;
71878;SDS011;59755;43.834;4.364;2022-08-03T13:41:22;4.53;;;2.60;;
71878;SDS011;59755;43.834;4.364;2022-08-03T13:43:49;5.28;;;2.80;;
71878;SDS011;59755;43.834;4.364;2022-08-03T13:46:15;5.85;;;2.75;;
71878;SDS011;59755;43.834;4.364;2022-08-03T13:48:41;6.45;;;2.83;;
71878;SDS011;59755;43.834;4.364;2022-08-03T13:51:07;6.30;;;2.60;;
71878;SDS011;59755;43.834;4.364;2022-08-03T13:53:33;4.43;;;2.45;;
71878;SDS011;59755;43.834;4.364;2022-08-03T13:55:59;5.55;;;2.75;;
71878;SDS011;59755;43.834;4.364;2022-08-03T13:58:25;5.40;;;2.70;;
71878;SDS011;59755;43.834;4.364;2022-08-03T14:00:51;6.03;;;2.70;;
71878;SDS011;59755;43.834;4.364;2022-08-03T14:03:17;6.30;;;3.10;;
71878;SDS011;59755;43.834;4.364;2022-08-03T14:05:44;6.60;;;2.75;;
71878;SDS011;59755;43.834;4.364;2022-08-03T14:08:11;6.43;;;2.70;;
71878;SDS011;59755;43.834;4.364;2022-08-03T14:10:38;5.07;;;2.20;;
71878;SDS011;59755;43.834;4.364;2022-08-03T14:13:05;5.72;;;2.55;;
71878;SDS011;59755;43.834;4.364;2022-08-03T14:15:31;6.43;;;2.70;;
71878;SDS011;59755;43.834;4.364;2022-08-03T14:17:57;5.72;;;2.70;;
71878;SDS011;59755;43.834;4.364;2022-08-03T14:20:24;4.80;;;2.47;;
71878;SDS011;59755;43.834;4.364;2022-08-03T14:22:50;4.93;;;2.70;;
71878;SDS011;59755;43.834;4.364;2022-08-03T14:25:16;6.30;;;2.85;;
71878;SDS011;59755;43.834;4.364;2022-08-03T14:27:42;4.95;;;2.55;;
71878;SDS011;59755;43.834;4.364;2022-08-03T14:30:08;7.45;;;2.90;;
71878;SDS011;59755;43.834;4.364;2022-08-03T14:32:34;4.93;;;2.47;;
71878;SDS011;59755;43.834;4.364;2022-08-03T14:35:00;5.05;;;2.60;;
71878;SDS011;59755;43.834;4.364;2022-08-03T14:37:27;6.25;;;2.50;;
71878;SDS011;59755;43.834;4.364;2022-08-03T14:39:53;4.70;;;2.63;;
71878;SDS011;59755;43.834;4.364;2022-08-03T14:42:19;6.03;;;2.70;;
71878;SDS011;59755;43.834;4.364;2022-08-03T14:44:45;5.55;;;2.60;;
71878;SDS011;59755;43.834;4.364;2022-08-03T14:47:11;5.90;;;2.65;;
71878;SDS011;59755;43.834;4.364;2022-08-03T14:49:38;5.07;;;2.70;;
71878;SDS011;59755;43.834;4.364;2022-08-03T14:52:04;5.65;;;2.70;;
71878;SDS011;59755;43.834;4.364;2022-08-03T14:54:30;5.40;;;2.60;;
71878;SDS011;59755;43.834;4.364;2022-08-03T14:56:56;5.35;;;2.75;;
71878;SDS011;59755;43.834;4.364;2022-08-03T14:59:23;5.55;;;2.70;;
71878;SDS011;59755;43.834;4.364;2022-08-03T15:01:49;5.93;;;2.55;;
71878;SDS011;59755;43.834;4.364;2022-08-03T15:04:15;6.35;;;2.85;;
71878;SDS011;59755;43.834;4.364;2022-08-03T15:06:41;7.00;;;2.63;;
71878;SDS011;59755;43.834;4.364;2022-08-03T15:09:07;5.43;;;2.70;;
71878;SDS011;59755;43.834;4.364;2022-08-03T15:11:33;5.25;;;2.58;;
71878;SDS011;59755;43.834;4.364;2022-08-03T15:14:00;5.40;;;2.80;;
71878;SDS011;59755;43.834;4.364;2022-08-03T15:16:26;5.10;;;2.53;;
71878;SDS011;59755;43.834;4.364;2022-08-03T15:18:52;5.20;;;2.58;;
71878;SDS011;59755;43.834;4.364;2022-08-03T15:21:18;5.65;;;2.67;;
71878;SDS011;59755;43.834;4.364;2022-08-03T15:23:44;5.20;;;2.50;;
71878;SDS011;59755;43.834;4.364;2022-08-03T15:26:10;5.65;;;2.45;;
71878;SDS011;59755;43.834;4.364;2022-08-03T15:28:36;5.28;;;2.60;;
71878;SDS011;59755;43.834;4.364;2022-08-03T15:31:03;7.07;;;2.72;;
71878;SDS011;59755;43.834;4.364;2022-08-03T15:33:29;5.40;;;2.60;;
71878;SDS011;59755;43.834;4.364;2022-08-03T15:35:55;5.57;;;2.60;;
71878;SDS011;59755;43.834;4.364;2022-08-03T15:38:21;6.53;;;2.67;;